Flight Track Log - Related Links

Times and Time Zones

All times are in EDT time to prevent confusion due to time zone crossing. See the SWA419 flight status page for this flight to view local times or setup timezone preferences in your user account.

Time Position Orientation Groundspeed Altitude Reporting Facility
EDT Latitude Longitude Course Direction KTS MPH feet Rate Location/Type
Thu 06:59:38 PM 29.5464 -98.4922 304° West 146 168 1,700  Level Houston Center
Thu 07:00:33 PM 29.5711 -98.5350 304° West 200 230 3,400 2,526 Climbing Houston Center
Thu 07:01:13 PM 29.5961 -98.5736 307° West 213 245 5,700 2,882 Climbing Houston Center
Thu 07:02:15 PM 29.6614 -98.5747 359° North 280 322 8,300 2,661 Climbing Houston Center
Thu 07:03:17 PM 29.7517 -98.5364 20° North 317 365 11,200 2,710 Climbing Houston Center
Thu 07:04:19 PM 29.8531 -98.4964 19° North 384 442 13,900 2,758 Climbing Houston Center
Thu 07:05:21 PM 29.9681 -98.4494 19° North 442 509 16,900 2,688 Climbing Houston Center
Thu 07:06:24 PM 30.0808 -98.4042 19° North 411 473 19,500 2,448 Climbing Houston Center
Thu 07:07:26 PM 30.1953 -98.4450 343° North 425 489 22,000 2,323 Climbing Houston Center
Thu 07:08:28 PM 30.2958 -98.5058 332° Northwest 387 445 24,300 1,984 Climbing Houston Center
Thu 07:09:30 PM 30.4031 -98.5725 332° Northwest 427 491 26,100 1,935 Climbing Houston Center
Thu 07:10:32 PM 30.5133 -98.6394 332° Northwest 440 506 28,300 2,032 Climbing Houston Center
Thu 07:11:34 PM 30.6236 -98.7061 333° Northwest 442 509 30,300 1,776 Climbing Houston Center
Thu 07:12:37 PM 30.7322 -98.7719 332° Northwest 437 503 32,000 1,248 Climbing Houston Center
Thu 07:13:39 PM 30.8378 -98.8367 332° Northwest 426 490 32,900 1,355 Climbing Houston Center
Thu 07:14:41 PM 30.9403 -98.8983 333° Northwest 414 476 34,800 1,306 Climbing Houston Center
Thu 07:15:43 PM 31.0425 -98.9631 332° Northwest 411 473 35,600 823 Climbing Houston Center
Thu 07:16:45 PM 31.1683 -99.0408 332° Northwest 430 495 36,500 1,161 Climbing Houston Center
Thu 07:17:47 PM 31.2789 -99.1081 333° Northwest 441 507 38,000 726 Climbing Houston Center
Thu 07:18:49 PM 31.3831 -99.1725 332° Northwest 425 489 38,000  Level Houston Center
Thu 07:19:39 PM 31.4592 -99.2228 331° Northwest 414 476 38,000  Level Fort Worth Center
Thu 07:20:51 PM 31.5606 -99.2858 332° Northwest 409 471 38,000  Level Fort Worth Center
Thu 07:21:51 PM 31.6806 -99.3589 333° Northwest 409 471 38,000  Level Fort Worth Center
Thu 07:22:51 PM 31.7839 -99.4247 332° Northwest 409 471 38,000  Level Fort Worth Center
Thu 07:23:51 PM 31.8850 -99.4858 333° Northwest 409 471 38,000  Level Fort Worth Center
Thu 07:24:51 PM 31.9864 -99.5517 331° Northwest 409 471 38,000  Level Fort Worth Center
Thu 07:25:51 PM 32.0894 -99.6153 332° Northwest 414 476 38,000  Level Fort Worth Center
Thu 07:26:51 PM 32.1928 -99.6792 332° Northwest 414 476 38,000  Level Fort Worth Center
Thu 07:27:51 PM 32.2939 -99.7456 331° Northwest 414 476 38,000  Level Fort Worth Center
Thu 07:28:51 PM 32.3969 -99.8122 331° Northwest 414 476 38,000  Level Fort Worth Center
Thu 07:29:51 PM 32.5003 -99.8742 333° Northwest 414 476 38,000  Level Fort Worth Center
Thu 07:30:51 PM 32.5972 -99.9311 334° Northwest 414 476 38,000  Level Fort Worth Center
Thu 07:31:51 PM 32.7378 -99.9967 339° North 433 498 38,000  Level Fort Worth Center
Thu 07:32:51 PM 32.8450 -100.0567 335° Northwest 433 498 38,000  Level Fort Worth Center
Thu 07:34:03 PM 32.9525 -100.1144 336° Northwest 433 498 38,000  Level Fort Worth Center
Thu 07:35:03 PM 33.0844 -100.1853 336° Northwest 433 498 38,000  Level Fort Worth Center
Thu 07:36:03 PM 33.1689 -100.2328 335° Northwest 433 498 38,000  Level Fort Worth Center
Thu 07:37:03 PM 33.3031 -100.3064 335° Northwest 433 498 38,000  Level Fort Worth Center
Thu 07:38:03 PM 33.4122 -100.3672 335° Northwest 433 498 38,000  Level Fort Worth Center
Thu 07:39:03 PM 33.5214 -100.4283 335° Northwest 438 504 38,000  Level Fort Worth Center
Thu 07:40:03 PM 33.6325 -100.4919 335° Northwest 438 504 38,000  Level Fort Worth Center
Thu 07:41:03 PM 33.7436 -100.5508 336° Northwest 438 504 38,000  Level Fort Worth Center
Thu 07:42:34 PM 33.8950 -100.6347 335° Northwest 432 497 38,000  Level Albuquerque Center
Thu 07:43:36 PM 34.0042 -100.6975 335° Northwest 433 498 38,000  Level Albuquerque Center
Thu 07:44:38 PM 34.1369 -100.7714 335° Northwest 438 504 38,000  Level Albuquerque Center
Thu 07:45:39 PM 34.2475 -100.8350 335° Northwest 440 506 38,000  Level Albuquerque Center
Thu 07:46:41 PM 34.3603 -100.8981 335° Northwest 444 511 38,000  Level Albuquerque Center
Thu 07:47:42 PM 34.4725 -100.9611 335° Northwest 446 513 38,000  Level Albuquerque Center
Thu 07:48:44 PM 34.5844 -101.0258 335° Northwest 446 513 38,000  Level Albuquerque Center
Thu 07:49:46 PM 34.6958 -101.0906 334° Northwest 445 512 38,000  Level Albuquerque Center
Thu 07:50:47 PM 34.8044 -101.1533 335° Northwest 437 503 38,000  Level Albuquerque Center
Thu 07:51:49 PM 34.9347 -101.2286 335° Northwest 434 499 38,000  Level Albuquerque Center
Thu 07:52:50 PM 35.0431 -101.2922 334° Northwest 433 498 38,000  Level Albuquerque Center
Thu 07:53:52 PM 35.1597 -101.3589 335° Northwest 438 504 38,000  Level Albuquerque Center
Thu 07:54:54 PM 35.2731 -101.4244 335° Northwest 445 512 38,000  Level Albuquerque Center
Thu 07:55:55 PM 35.3842 -101.4894 335° Northwest 442 509 38,000  Level Albuquerque Center
Thu 07:56:57 PM 35.4983 -101.5553 335° Northwest 446 513 38,000  Level Albuquerque Center
Thu 07:57:58 PM 35.6094 -101.6225 334° Northwest 435 501 38,000  Level Albuquerque Center
Thu 07:59:00 PM 35.7203 -101.6897 334° Northwest 442 509 38,000  Level Albuquerque Center
Thu 08:00:02 PM 35.8303 -101.7525 335° Northwest 439 505 38,000  Level Albuquerque Center
Thu 08:01:03 PM 35.9389 -101.8178 334° Northwest 437 503 38,000  Level Albuquerque Center
Thu 08:02:05 PM 36.0483 -101.8828 334° Northwest 437 503 38,000  Level Albuquerque Center
Thu 08:03:07 PM 36.1572 -101.9489 334° Northwest 435 501 38,000  Level Albuquerque Center
Thu 08:04:08 PM 36.2883 -102.0258 335° Northwest 436 502 38,000  Level Albuquerque Center
Thu 08:05:10 PM 36.3983 -102.0914 334° Northwest 437 503 38,000  Level Albuquerque Center
Thu 08:06:12 PM 36.5083 -102.1586 334° Northwest 440 506 38,000  Level Albuquerque Center
Thu 08:07:13 PM 36.6183 -102.2253 334° Northwest 439 505 38,000  Level Albuquerque Center
Thu 08:08:15 PM 36.7261 -102.2914 334° Northwest 435 501 38,000  Level Albuquerque Center
Thu 08:09:17 PM 36.8333 -102.3556 334° Northwest 430 495 38,000 -194 Level Albuquerque Center
Thu 08:10:19 PM 36.9467 -102.4264 333° Northwest 436 502 37,600 -732 Descending Albuquerque Center
Thu 08:11:20 PM 37.0678 -102.5006 334° Northwest 433 498 36,500 -780 Descending Albuquerque Center
Thu 08:12:22 PM 37.1844 -102.5725 334° Northwest 440 506 36,000 -242 Descending Albuquerque Center
Thu 08:13:24 PM 37.2886 -102.6367 334° Northwest 438 504 36,000  Level Albuquerque Center
Thu 08:14:26 PM 37.3922 -102.7011 334° Northwest 435 501 36,000  Level Albuquerque Center
Thu 08:14:54 PM 37.4422 -102.7314 334° Northwest 431 496 36,000  Level Denver Center
Thu 08:15:56 PM 37.5633 -102.8119 332° Northwest 441 507 36,000  Level Denver Center
Thu 08:16:57 PM 37.6625 -102.8894 328° Northwest 442 509 36,000  Level Denver Center
Thu 08:17:59 PM 37.7797 -102.9775 329° Northwest 439 505 36,000 -97 Level Denver Center
Thu 08:19:01 PM 37.8800 -103.0536 329° Northwest 439 505 35,800 -629 Descending Denver Center
Thu 08:20:03 PM 37.9961 -103.1428 329° Northwest 438 504 34,700 -968 Descending Denver Center
Thu 08:21:05 PM 38.0933 -103.2161 329° Northwest 429 494 33,800 -1,016 Descending Denver Center
Thu 08:22:07 PM 38.2053 -103.3025 329° Northwest 422 486 32,600 -871 Descending Denver Center
Thu 08:23:09 PM 38.2986 -103.3733 329° Northwest 408 470 32,000 -290 Descending Denver Center
Thu 08:24:11 PM 38.4078 -103.4569 329° Northwest 411 473 32,000  Level Denver Center
Thu 08:25:13 PM 38.4989 -103.5292 328° Northwest 405 466 32,000 -145 Level Denver Center
Thu 08:26:15 PM 38.6050 -103.6100 329° Northwest 397 457 31,700 -1,016 Descending Denver Center
Thu 08:27:17 PM 38.6911 -103.6783 328° Northwest 380 437 29,900 -1,887 Descending Denver Center
Thu 08:28:19 PM 38.7883 -103.7531 329° Northwest 364 419 27,800 -1,935 Descending Denver Center
Thu 08:29:21 PM 38.8725 -103.8197 328° Northwest 345 397 25,900 -1,742 Descending Denver Center
Thu 08:30:23 PM 38.9453 -103.8889 324° Northwest 325 374 24,200 -1,355 Descending Denver Center
Thu 08:31:25 PM 38.9728 -104.0011 288° West 339 390 23,100 -1,258 Descending Denver Center
Thu 08:32:27 PM 39.0550 -104.0386 340° North 313 360 21,600 -1,790 Descending Denver Center
Thu 08:33:29 PM 39.1361 -104.0739 341° North 306 352 19,400 -2,371 Descending Denver Center
Thu 08:34:31 PM 39.2156 -104.1406 327° Northwest 335 386 16,700 -2,274 Descending Denver Center
Thu 08:35:33 PM 39.2839 -104.2250 316° Northwest 308 354 14,700 -1,355 Descending Denver Center
Thu 08:36:35 PM 39.3431 -104.2925 319° Northwest 281 323 13,900 -683 Descending Denver Center
Thu 08:37:36 PM 39.3714 -104.3694 295° West 251 289 13,300 -878 Descending Denver Center
Thu 08:38:38 PM 39.4122 -104.4336 309° West 216 249 12,100 -1,113 Descending Denver Center
Thu 08:39:40 PM 39.4497 -104.4933 309° West 219 252 11,000 -774 Descending Denver Center
Thu 08:40:42 PM 39.5094 -104.5250 338° Northwest 218 251 10,500 -823 Descending Denver Center
Thu 08:41:44 PM 39.5642 -104.5561 336° Northwest 216 249 9,300 -732 Descending Denver Center
Thu 08:42:45 PM 39.6186 -104.5875 336° Northwest 213 245 9,000 -244 Descending Denver Center
Thu 08:43:47 PM 39.6647 -104.6139 336° Northwest 215 247 8,800 -677 Descending Denver Center
Thu 08:44:49 PM 39.7181 -104.6403 339° North 171 197 7,600 -1,016 Descending Denver Center
Thu 08:45:51 PM 39.7664 -104.6425 358° North 173 199 6,700 -871 Descending Denver Center
Thu 08:46:53 PM 39.8097 -104.6417 North 142 163 5,800 -732 Descending Denver Center
Thu 08:47:54 PM 39.8483 -104.6422 359° North 138 159 5,200 -590 Descending Denver Center
Thu 08:49:00 PM 39.8500 -104.6667 North  Level FlightAware Approximate
Thu 08:56:00 PM 39.8617 -104.6732 North  Level Estimated
Thu 08:57:00 PM 39.8617 -104.6732 North  Level Estimated
Thu 08:58:00 PM 39.8617 -104.6732 North  Level Estimated

Login

Don't have an account? Register now (free) for customized features, flight alerts, and more!